createdAt,value
2022-12-12T00:00:42.226Z,-1.50
2022-12-12T00:03:17.780Z,-1.50
2022-12-12T00:05:53.178Z,-1.50
2022-12-12T00:08:26.254Z,-1.60
2022-12-12T00:10:58.789Z,-1.60
2022-12-12T00:13:31.131Z,-1.60
2022-12-12T00:16:20.404Z,-1.60
2022-12-12T00:18:53.829Z,-1.70
2022-12-12T00:21:28.960Z,-1.70
2022-12-12T00:24:01.472Z,-1.70
2022-12-12T00:26:35.942Z,-1.70
2022-12-12T00:29:08.218Z,-1.70
2022-12-12T00:31:41.559Z,-1.70
2022-12-12T00:34:13.983Z,-1.70
2022-12-12T00:36:45.995Z,-1.80
2022-12-12T00:39:18.870Z,-1.80
2022-12-12T00:41:51.290Z,-1.80
2022-12-12T00:44:25.545Z,-1.80
2022-12-12T00:46:57.508Z,-1.80
2022-12-12T00:49:29.490Z,-1.80
2022-12-12T00:52:01.609Z,-1.80
2022-12-12T00:54:34.726Z,-1.80
2022-12-12T00:57:06.798Z,-1.80
2022-12-12T00:59:39.177Z,-1.80
2022-12-12T01:02:14.522Z,-1.90
2022-12-12T01:04:47.003Z,-1.90
2022-12-12T01:07:19.105Z,-1.90
2022-12-12T01:09:51.585Z,-1.90
2022-12-12T01:12:23.679Z,-1.90
2022-12-12T01:14:55.924Z,-1.90
2022-12-12T01:17:28.277Z,-1.90
2022-12-12T01:20:02.796Z,-1.90
2022-12-12T01:22:37.561Z,-1.90
2022-12-12T01:25:11.634Z,-1.90
2022-12-12T01:27:46.073Z,-1.90
2022-12-12T01:30:21.527Z,-1.90
2022-12-12T01:32:55.145Z,-1.90
2022-12-12T01:35:27.507Z,-1.90
2022-12-12T01:38:00.136Z,-1.90
2022-12-12T01:40:32.269Z,-2.00
2022-12-12T01:43:11.612Z,-2.00
2022-12-12T01:45:58.102Z,-2.00
2022-12-12T01:48:54.807Z,-2.00
2022-12-12T01:51:32.039Z,-2.00
2022-12-12T01:54:17.812Z,-2.00
2022-12-12T01:56:56.143Z,-2.00
2022-12-12T01:59:29.698Z,-2.10
2022-12-12T02:02:05.952Z,-2.10
2022-12-12T02:04:40.408Z,-2.10
2022-12-12T02:07:12.984Z,-2.10
2022-12-12T02:09:49.087Z,-2.20
2022-12-12T02:12:22.172Z,-2.20
2022-12-12T02:14:55.416Z,-2.20
2022-12-12T02:17:53.833Z,-2.30
2022-12-12T02:21:11.688Z,-2.40
2022-12-12T02:24:28.623Z,-2.50
2022-12-12T02:27:51.259Z,-2.60
2022-12-12T02:31:05.159Z,-2.60
2022-12-12T02:34:15.555Z,-2.80
2022-12-12T02:37:15.130Z,-2.80
2022-12-12T02:40:10.238Z,-2.90
2022-12-12T02:43:20.559Z,-3.00
2022-12-12T02:46:38.357Z,-3.10
2022-12-12T02:50:05.032Z,-3.20
2022-12-12T02:52:43.500Z,-3.30
2022-12-12T02:55:18.683Z,-3.30
2022-12-12T02:57:52.330Z,-3.30
2022-12-12T03:00:25.821Z,-3.40
2022-12-12T03:03:41.413Z,-3.40
2022-12-12T03:06:59.659Z,-3.50
2022-12-12T03:10:16.620Z,-3.60
2022-12-12T03:13:33.595Z,-3.70
2022-12-12T03:16:36.838Z,-3.70
2022-12-12T03:19:33.809Z,-3.80
2022-12-12T03:22:26.720Z,-3.90
2022-12-12T03:25:27.904Z,-3.90
2022-12-12T03:28:30.066Z,-3.90
2022-12-12T03:31:27.105Z,-4.00
2022-12-12T03:34:13.309Z,-4.00
2022-12-12T03:37:13.485Z,-4.00
2022-12-12T03:40:18.288Z,-4.10
2022-12-12T03:43:10.158Z,-4.10
2022-12-12T03:46:22.395Z,-4.20
2022-12-12T03:49:11.799Z,-4.20
2022-12-12T03:51:59.413Z,-4.20
2022-12-12T03:54:57.410Z,-4.20
2022-12-12T03:57:51.456Z,-4.10
2022-12-12T04:00:33.548Z,-4.10
2022-12-12T04:03:33.246Z,-4.10
2022-12-12T04:06:28.590Z,-4.10
2022-12-12T04:09:34.027Z,-4.00
2022-12-12T04:13:06.309Z,-4.00
2022-12-12T04:16:12.738Z,-3.90
2022-12-12T04:19:07.782Z,-3.90
2022-12-12T04:22:17.909Z,-3.90
2022-12-12T04:25:33.508Z,-3.80
2022-12-12T04:28:27.701Z,-3.70
2022-12-12T04:31:05.013Z,-3.70
2022-12-12T04:33:49.535Z,-3.70
2022-12-12T04:36:27.041Z,-3.60
2022-12-12T04:39:02.173Z,-3.60
2022-12-12T04:41:38.903Z,-3.60
2022-12-12T04:44:14.183Z,-3.50
2022-12-12T04:46:55.007Z,-3.60
2022-12-12T04:49:32.555Z,-3.50
2022-12-12T04:52:11.919Z,-3.50
2022-12-12T04:55:03.472Z,-3.50
2022-12-12T04:57:55.855Z,-3.40
2022-12-12T05:00:35.448Z,-3.40
2022-12-12T05:03:47.138Z,-3.40
2022-12-12T05:06:36.772Z,-3.40
2022-12-12T05:09:17.887Z,-3.30
2022-12-12T05:11:50.199Z,-3.30
2022-12-12T05:14:22.746Z,-3.30
2022-12-12T05:17:01.422Z,-3.30
2022-12-12T05:19:37.457Z,-3.30
2022-12-12T05:22:09.504Z,-3.30
2022-12-12T05:24:41.606Z,-3.30
2022-12-12T05:27:13.686Z,-3.30
2022-12-12T05:29:45.578Z,-3.30
2022-12-12T05:32:17.579Z,-3.30
2022-12-12T05:34:49.567Z,-3.30
2022-12-12T05:37:21.653Z,-3.30
2022-12-12T05:39:53.756Z,-3.30
2022-12-12T05:42:25.972Z,-3.30
2022-12-12T05:44:58.080Z,-3.30
2022-12-12T05:47:30.241Z,-3.30
2022-12-12T05:50:02.349Z,-3.30
2022-12-12T05:52:35.322Z,-3.30
2022-12-12T05:55:08.461Z,-3.30
2022-12-12T05:57:40.567Z,-3.30
2022-12-12T06:00:12.982Z,-3.30
2022-12-12T06:02:45.216Z,-3.30
2022-12-12T06:05:17.643Z,-3.30
2022-12-12T06:07:50.239Z,-3.30
2022-12-12T06:10:22.446Z,-3.30
2022-12-12T06:12:55.433Z,-3.30
2022-12-12T06:15:27.856Z,-3.20
2022-12-12T06:18:00.302Z,-3.20
2022-12-12T06:20:33.019Z,-3.20
2022-12-12T06:23:07.209Z,-3.20
2022-12-12T06:25:39.643Z,-3.20
2022-12-12T06:28:11.630Z,-3.20
2022-12-12T06:30:43.627Z,-3.20
2022-12-12T06:33:16.073Z,-3.20
2022-12-12T06:35:58.731Z,-3.20
2022-12-12T06:38:32.681Z,-3.20
2022-12-12T06:41:11.105Z,-3.20
2022-12-12T06:43:44.827Z,-3.20
2022-12-12T06:46:20.176Z,-3.20
2022-12-12T06:48:57.008Z,-3.20
2022-12-12T06:51:33.272Z,-3.20
2022-12-12T06:54:08.524Z,-3.20
2022-12-12T06:56:48.024Z,-3.20
2022-12-12T06:59:20.563Z,-3.20
2022-12-12T07:01:56.273Z,-3.20
2022-12-12T07:04:29.247Z,-3.20
2022-12-12T07:07:01.779Z,-3.20
2022-12-12T07:09:34.021Z,-3.20
2022-12-12T07:12:06.002Z,-3.20
2022-12-12T07:14:39.192Z,-3.20
2022-12-12T07:17:11.252Z,-3.20
2022-12-12T07:19:43.578Z,-3.20
2022-12-12T07:22:15.500Z,-3.20
2022-12-12T07:24:47.730Z,-3.10
2022-12-12T07:27:21.910Z,-3.20
2022-12-12T07:29:54.074Z,-3.20
2022-12-12T07:32:26.169Z,-3.20
2022-12-12T07:34:58.122Z,-3.20
2022-12-12T07:37:30.205Z,-3.20
2022-12-12T07:40:02.238Z,-3.20
2022-12-12T07:42:34.666Z,-3.20
2022-12-12T07:45:07.409Z,-3.10
2022-12-12T07:47:40.195Z,-3.10
2022-12-12T07:50:12.491Z,-3.10
2022-12-12T07:52:44.536Z,-3.10
2022-12-12T07:55:16.847Z,-3.10
2022-12-12T07:57:49.168Z,-3.10
2022-12-12T08:00:22.010Z,-3.00
2022-12-12T08:02:54.206Z,-3.00
2022-12-12T08:05:26.241Z,-3.00
2022-12-12T08:07:58.775Z,-2.90
2022-12-12T08:10:30.996Z,-2.90
2022-12-12T08:13:03.082Z,-2.90
2022-12-12T08:15:35.128Z,-2.80
2022-12-12T08:18:07.290Z,-2.80
2022-12-12T08:20:41.934Z,-2.80
2022-12-12T08:23:13.905Z,-2.70
2022-12-12T08:25:46.636Z,-2.70
2022-12-12T08:28:18.708Z,-2.70
2022-12-12T08:30:51.606Z,-2.60
2022-12-12T08:33:25.438Z,-2.60
2022-12-12T08:35:58.205Z,-2.60
2022-12-12T08:38:30.568Z,-2.50
2022-12-12T08:41:03.648Z,-2.40
2022-12-12T08:43:37.584Z,-2.40
2022-12-12T08:46:17.422Z,-2.30
2022-12-12T08:48:50.797Z,-2.30
2022-12-12T08:51:23.701Z,-2.20
2022-12-12T08:53:56.056Z,-2.20
2022-12-12T08:56:28.223Z,-2.10
2022-12-12T08:59:00.360Z,-2.00
2022-12-12T09:01:33.400Z,-2.00
2022-12-12T09:04:05.940Z,-1.90
2022-12-12T09:06:38.189Z,-1.90
2022-12-12T09:09:10.336Z,-1.80
2022-12-12T09:11:42.530Z,-1.80
2022-12-12T09:14:14.847Z,-1.70
2022-12-12T09:16:48.610Z,-1.70
2022-12-12T09:19:20.919Z,-1.70
2022-12-12T09:21:53.022Z,-1.60
2022-12-12T09:24:25.722Z,-1.60
2022-12-12T09:26:57.871Z,-1.50
2022-12-12T09:29:29.943Z,-1.50
2022-12-12T09:32:06.556Z,-1.50
2022-12-12T09:34:39.201Z,-1.40
2022-12-12T09:37:11.421Z,-1.40
2022-12-12T09:39:43.640Z,-1.40
2022-12-12T09:42:23.509Z,-1.40
2022-12-12T09:45:05.560Z,-1.40
2022-12-12T09:47:45.530Z,-1.30
2022-12-12T09:50:39.516Z,-1.30
2022-12-12T09:53:19.719Z,-1.30
2022-12-12T09:56:14.240Z,-1.30
2022-12-12T09:59:09.220Z,-1.20
2022-12-12T10:02:22.064Z,-1.10
2022-12-12T10:05:42.281Z,-0.90
2022-12-12T10:08:39.349Z,-0.90
2022-12-12T10:11:50.529Z,-0.80
2022-12-12T10:14:34.570Z,-0.80
2022-12-12T10:17:26.095Z,-0.80
2022-12-12T10:20:17.433Z,-0.80
2022-12-12T10:23:14.049Z,-0.70
2022-12-12T10:26:03.659Z,-0.80
2022-12-12T10:28:41.288Z,-0.80
2022-12-12T10:31:17.187Z,-0.70
2022-12-12T10:34:12.062Z,-0.70
2022-12-12T10:37:20.422Z,-0.80
2022-12-12T10:40:14.289Z,-0.80
2022-12-12T10:43:29.388Z,-0.90
2022-12-12T10:46:33.454Z,-0.90
2022-12-12T10:49:25.449Z,-1.00
2022-12-12T10:52:00.745Z,-1.00
2022-12-12T10:54:48.274Z,-1.10
2022-12-12T10:57:34.699Z,-1.10
2022-12-12T11:00:25.324Z,-1.10
2022-12-12T11:03:29.698Z,-1.10
2022-12-12T11:06:14.978Z,-1.00
2022-12-12T11:08:59.884Z,-1.00
2022-12-12T11:12:04.415Z,-1.00
2022-12-12T11:14:53.494Z,-1.00
2022-12-12T11:17:35.432Z,-1.00
2022-12-12T11:20:14.663Z,-1.00
2022-12-12T11:22:53.009Z,-1.00
2022-12-12T11:25:32.362Z,-1.00
2022-12-12T11:28:07.085Z,-0.90
2022-12-12T11:30:52.045Z,-0.90
2022-12-12T11:34:02.045Z,-0.90
2022-12-12T11:36:41.546Z,-0.90
2022-12-12T11:39:21.532Z,-0.90
2022-12-12T11:42:03.912Z,-0.80
2022-12-12T11:45:10.945Z,-0.80
2022-12-12T11:47:53.635Z,-0.70
2022-12-12T11:50:29.490Z,-0.70
2022-12-12T11:53:01.799Z,-0.70
2022-12-12T11:55:49.206Z,-0.60
2022-12-12T11:58:50.374Z,-0.50
2022-12-12T12:02:11.522Z,-0.50
2022-12-12T12:05:27.576Z,-0.40
2022-12-12T12:08:53.305Z,-0.30
2022-12-12T12:12:04.379Z,-0.30
2022-12-12T12:14:55.850Z,-0.30
2022-12-12T12:18:11.528Z,-0.30
2022-12-12T12:21:13.925Z,-0.10
2022-12-12T12:24:12.781Z,0.10
2022-12-12T12:27:14.977Z,0.20
2022-12-12T12:30:23.526Z,0.20
2022-12-12T12:33:44.650Z,0.10
2022-12-12T12:36:52.247Z,0.00
2022-12-12T12:40:02.442Z,-0.10
2022-12-12T12:43:18.076Z,-0.20
2022-12-12T12:46:15.805Z,-0.30
2022-12-12T12:49:05.119Z,-0.40
2022-12-12T12:51:58.790Z,-0.40
2022-12-12T12:54:44.252Z,-0.50
2022-12-12T12:57:32.582Z,-0.50
2022-12-12T13:00:24.451Z,-0.60
2022-12-12T13:03:17.711Z,-0.70
2022-12-12T13:05:59.822Z,-0.70
2022-12-12T13:08:52.700Z,-0.80
2022-12-12T13:11:38.801Z,-0.80
2022-12-12T13:14:33.645Z,-0.80
2022-12-12T13:17:27.977Z,-0.90
2022-12-12T13:20:24.280Z,-0.90
2022-12-12T13:23:12.590Z,-1.00
2022-12-12T13:26:18.401Z,-1.00
2022-12-12T13:29:28.970Z,-1.00
2022-12-12T13:32:21.515Z,-1.10
2022-12-12T13:35:18.275Z,-1.10
2022-12-12T13:38:00.479Z,-1.10
2022-12-12T13:40:41.546Z,-1.10
2022-12-12T13:43:33.443Z,-1.10
2022-12-12T13:46:26.447Z,-1.20
2022-12-12T13:49:27.457Z,-1.20
2022-12-12T13:52:38.727Z,-1.20
2022-12-12T13:55:13.111Z,-1.20
2022-12-12T13:57:59.759Z,-1.30
2022-12-12T14:00:48.785Z,-1.30
2022-12-12T14:03:44.976Z,-1.30
2022-12-12T14:06:19.818Z,-1.30
2022-12-12T14:08:53.719Z,-1.40
2022-12-12T14:11:37.552Z,-1.40
2022-12-12T14:14:25.050Z,-1.40
2022-12-12T14:16:57.995Z,-1.40
2022-12-12T14:19:37.281Z,-1.50
2022-12-12T14:22:38.194Z,-1.50
2022-12-12T14:25:34.820Z,-1.50
2022-12-12T14:28:19.609Z,-1.50
2022-12-12T14:30:58.982Z,-1.60
2022-12-12T14:33:45.957Z,-1.50
2022-12-12T14:37:08.685Z,-1.60
2022-12-12T14:40:16.363Z,-1.60
2022-12-12T14:43:20.522Z,-1.60
2022-12-12T14:46:02.295Z,-1.70
2022-12-12T14:48:38.149Z,-1.80
2022-12-12T14:51:33.828Z,-1.80
2022-12-12T14:54:18.891Z,-1.80
2022-12-12T14:57:01.872Z,-1.90
2022-12-12T14:59:40.935Z,-1.90
2022-12-12T15:02:39.737Z,-1.90
2022-12-12T15:05:19.341Z,-1.90
2022-12-12T15:07:58.822Z,-2.00
2022-12-12T15:10:33.550Z,-2.00
2022-12-12T15:13:16.975Z,-2.00
2022-12-12T15:15:52.408Z,-2.10
2022-12-12T15:18:24.789Z,-2.10
2022-12-12T15:20:57.780Z,-2.10
2022-12-12T15:23:30.133Z,-2.10
2022-12-12T15:26:03.091Z,-2.10
2022-12-12T15:28:35.852Z,-2.20
2022-12-12T15:31:14.500Z,-2.20
2022-12-12T15:33:49.336Z,-2.20
2022-12-12T15:36:29.179Z,-2.30
2022-12-12T15:39:23.693Z,-2.40
2022-12-12T15:41:56.528Z,-2.40
2022-12-12T15:44:29.517Z,-2.40
2022-12-12T15:47:02.160Z,-2.50
2022-12-12T15:49:40.844Z,-2.50
2022-12-12T15:52:26.799Z,-2.60
2022-12-12T15:55:05.710Z,-2.60
2022-12-12T15:57:52.271Z,-2.70
2022-12-12T16:00:40.118Z,-2.70
2022-12-12T16:03:20.285Z,-2.80
2022-12-12T16:06:23.330Z,-2.80
2022-12-12T16:09:17.870Z,-2.90
2022-12-12T16:11:56.344Z,-2.90
2022-12-12T16:14:41.578Z,-3.00
2022-12-12T16:17:15.363Z,-3.00
2022-12-12T16:19:52.498Z,-3.10
2022-12-12T16:22:45.214Z,-3.10
2022-12-12T16:25:26.995Z,-3.10
2022-12-12T16:28:24.717Z,-3.10
2022-12-12T16:31:02.981Z,-3.20
2022-12-12T16:33:39.467Z,-3.20
2022-12-12T16:36:17.010Z,-3.20
2022-12-12T16:38:50.045Z,-3.30
2022-12-12T16:41:23.637Z,-3.30
2022-12-12T16:44:01.341Z,-3.30
2022-12-12T16:46:34.745Z,-3.30
2022-12-12T16:49:15.119Z,-3.40
2022-12-12T16:51:48.732Z,-3.40
2022-12-12T16:54:22.598Z,-3.40
2022-12-12T16:57:00.662Z,-3.40
2022-12-12T16:59:33.825Z,-3.50
2022-12-12T17:02:22.619Z,-3.50
2022-12-12T17:04:59.476Z,-3.50
2022-12-12T17:07:33.433Z,-3.50
2022-12-12T17:12:58.909Z,-3.60
2022-12-12T17:15:40.116Z,-3.60
2022-12-12T17:18:19.514Z,-3.60
2022-12-12T17:20:59.916Z,-3.70
2022-12-12T17:23:34.170Z,-3.70
2022-12-12T17:26:07.887Z,-3.70
2022-12-12T17:28:43.727Z,-3.80
2022-12-12T17:31:17.083Z,-3.80
2022-12-12T17:33:51.255Z,-3.80
2022-12-12T17:36:25.784Z,-3.80
2022-12-12T17:38:59.813Z,-3.90
2022-12-12T17:41:36.515Z,-3.90
2022-12-12T17:44:12.341Z,-3.90
2022-12-12T17:46:47.108Z,-3.90
2022-12-12T17:49:20.593Z,-3.90
2022-12-12T17:51:53.542Z,-3.90
2022-12-12T17:54:27.968Z,-3.90
2022-12-12T17:57:04.856Z,-3.90
2022-12-12T17:59:38.570Z,-4.00
2022-12-12T18:02:15.322Z,-4.00
2022-12-12T18:04:49.956Z,-3.90
2022-12-12T18:07:27.860Z,-3.90
2022-12-12T18:10:02.159Z,-3.90
2022-12-12T18:12:52.265Z,-3.80
2022-12-12T18:15:26.985Z,-3.80
2022-12-12T18:18:03.966Z,-3.80
2022-12-12T18:20:38.631Z,-3.80
2022-12-12T18:23:18.000Z,-3.70
2022-12-12T18:25:55.035Z,-3.70
2022-12-12T18:28:28.527Z,-3.70
2022-12-12T18:31:02.224Z,-3.80
2022-12-12T18:33:36.308Z,-3.80
2022-12-12T18:36:14.551Z,-3.80
2022-12-12T18:38:53.004Z,-3.90
2022-12-12T18:41:32.838Z,-3.90
2022-12-12T18:44:11.769Z,-3.90
2022-12-12T18:46:49.687Z,-4.00
2022-12-12T18:49:23.799Z,-4.00
2022-12-12T18:51:56.762Z,-4.00
2022-12-12T18:54:33.441Z,-4.00
2022-12-12T18:57:08.666Z,-4.00
2022-12-12T18:59:43.092Z,-4.10
2022-12-12T19:02:18.990Z,-4.10
2022-12-12T19:04:58.226Z,-4.10
2022-12-12T19:07:32.363Z,-4.20
2022-12-12T19:10:08.121Z,-4.20
2022-12-12T19:12:42.216Z,-4.20
2022-12-12T19:15:18.823Z,-4.30
2022-12-12T19:17:53.133Z,-4.30
2022-12-12T19:20:30.520Z,-4.40
2022-12-12T19:23:03.291Z,-4.40
2022-12-12T19:25:42.925Z,-4.40
2022-12-12T19:28:17.016Z,-4.50
2022-12-12T19:30:53.539Z,-4.50
2022-12-12T19:33:27.048Z,-4.50
2022-12-12T19:36:13.235Z,-4.50
2022-12-12T19:38:51.185Z,-4.50
2022-12-12T19:41:26.110Z,-4.60
2022-12-12T19:44:04.783Z,-4.60
2022-12-12T19:46:46.997Z,-4.60
2022-12-12T19:49:21.919Z,-4.70
2022-12-12T19:51:58.502Z,-4.70
2022-12-12T19:54:31.435Z,-4.70
2022-12-12T19:57:15.317Z,-4.70
2022-12-12T19:59:51.050Z,-4.70
2022-12-12T20:02:29.073Z,-4.80
2022-12-12T20:05:04.808Z,-4.80
2022-12-12T20:07:41.617Z,-4.80
2022-12-12T20:10:23.169Z,-4.80
2022-12-12T20:13:04.443Z,-4.90
2022-12-12T20:15:44.789Z,-4.90
2022-12-12T20:18:19.271Z,-4.90
2022-12-12T20:21:03.885Z,-4.90
2022-12-12T20:23:47.703Z,-5.00
2022-12-12T20:26:28.022Z,-5.00
2022-12-12T20:29:03.104Z,-5.10
2022-12-12T20:31:46.454Z,-5.10
2022-12-12T20:34:25.390Z,-5.10
2022-12-12T20:37:01.094Z,-5.10
2022-12-12T20:39:42.253Z,-5.10
2022-12-12T20:42:17.262Z,-5.10
2022-12-12T20:44:51.563Z,-5.20
2022-12-12T20:47:26.951Z,-5.20
2022-12-12T20:50:04.419Z,-5.20
2022-12-12T20:52:40.369Z,-5.20
2022-12-12T20:55:14.127Z,-5.30
2022-12-12T20:57:48.761Z,-5.30
2022-12-12T21:00:26.680Z,-5.30
2022-12-12T21:03:01.192Z,-5.30
2022-12-12T21:05:34.404Z,-5.40
2022-12-12T21:08:07.784Z,-5.40
2022-12-12T21:10:42.919Z,-5.40
2022-12-12T21:13:16.770Z,-5.40
2022-12-12T21:15:55.801Z,-5.50
2022-12-12T21:18:36.498Z,-5.50
2022-12-12T21:21:12.944Z,-5.50
2022-12-12T21:23:51.820Z,-5.50
2022-12-12T21:26:30.001Z,-5.60
2022-12-12T21:29:05.567Z,-5.60
2022-12-12T21:31:48.227Z,-5.60
2022-12-12T21:34:25.032Z,-5.70
2022-12-12T21:37:03.598Z,-5.70
2022-12-12T21:39:37.833Z,-5.70
2022-12-12T21:42:12.597Z,-5.70
2022-12-12T21:44:51.620Z,-5.70
2022-12-12T21:47:29.116Z,-5.70
2022-12-12T21:50:02.649Z,-5.80
2022-12-12T21:52:35.491Z,-5.80
2022-12-12T21:55:08.381Z,-5.80
2022-12-12T21:57:41.088Z,-5.80
2022-12-12T22:00:13.814Z,-5.90
2022-12-12T22:02:50.029Z,-5.90
2022-12-12T22:05:22.832Z,-5.90
2022-12-12T22:07:55.165Z,-5.90
2022-12-12T22:10:29.396Z,-5.90
2022-12-12T22:13:02.899Z,-6.00
2022-12-12T22:15:35.921Z,-6.00
2022-12-12T22:18:09.924Z,-6.00
2022-12-12T22:20:42.421Z,-6.00
2022-12-12T22:23:14.446Z,-6.00
2022-12-12T22:25:47.828Z,-6.00
2022-12-12T22:28:20.460Z,-6.00
2022-12-12T22:30:52.722Z,-6.10
2022-12-12T22:33:26.707Z,-6.10
2022-12-12T22:36:07.968Z,-6.10
2022-12-12T22:38:41.084Z,-6.20
2022-12-12T22:41:13.147Z,-6.20
2022-12-12T22:43:45.162Z,-6.20
2022-12-12T22:46:17.310Z,-6.20
2022-12-12T22:48:49.734Z,-6.30
2022-12-12T22:51:29.612Z,-6.30
2022-12-12T22:54:06.361Z,-6.30
2022-12-12T22:56:40.694Z,-6.30
2022-12-12T22:59:14.286Z,-6.30
2022-12-12T23:01:46.400Z,-6.40
2022-12-12T23:04:18.836Z,-6.40
2022-12-12T23:06:50.988Z,-6.40
2022-12-12T23:09:26.173Z,-6.40
2022-12-12T23:11:58.284Z,-6.40
2022-12-12T23:14:30.477Z,-6.50
2022-12-12T23:17:02.468Z,-6.50
2022-12-12T23:19:36.449Z,-6.50
2022-12-12T23:22:09.487Z,-6.50
2022-12-12T23:24:41.879Z,-6.50
2022-12-12T23:27:15.189Z,-6.50
2022-12-12T23:29:48.133Z,-6.50
2022-12-12T23:32:20.883Z,-6.50
2022-12-12T23:34:53.266Z,-6.50
2022-12-12T23:37:27.696Z,-6.60
2022-12-12T23:40:00.831Z,-6.60
2022-12-12T23:42:33.123Z,-6.60
2022-12-12T23:45:05.589Z,-6.60
2022-12-12T23:47:38.089Z,-6.60
2022-12-12T23:50:10.178Z,-6.70
2022-12-12T23:52:42.236Z,-6.70
2022-12-12T23:55:14.594Z,-6.70
2022-12-12T23:57:46.929Z,-6.70
